createdAt,value
2019-03-21T00:01:10.611Z,26.37
2019-03-21T00:03:39.865Z,28.02
2019-03-21T00:06:11.253Z,35.13
2019-03-21T00:08:40.374Z,20.40
2019-03-21T00:12:01.420Z,29.23
2019-03-21T00:17:33.126Z,21.95
2019-03-21T00:20:02.445Z,27.35
2019-03-21T00:22:32.185Z,23.38
2019-03-21T00:25:01.445Z,26.85
2019-03-21T00:27:30.543Z,26.40
2019-03-21T00:29:59.953Z,29.18
2019-03-21T00:32:29.200Z,28.98
2019-03-21T00:34:58.713Z,27.87
2019-03-21T00:37:27.939Z,22.87
2019-03-21T00:39:57.501Z,22.90
2019-03-21T00:42:26.720Z,26.05
2019-03-21T00:44:56.179Z,27.60
2019-03-21T00:47:25.469Z,25.43
2019-03-21T00:49:54.758Z,26.02
2019-03-21T00:52:24.038Z,28.98
2019-03-21T00:54:53.361Z,30.08
2019-03-21T00:57:22.989Z,21.77
2019-03-21T00:59:52.530Z,24.40
2019-03-21T01:02:21.746Z,24.45
2019-03-21T01:04:50.794Z,24.37
2019-03-21T01:07:20.178Z,37.33
2019-03-21T01:12:12.155Z,22.10
2019-03-21T01:14:42.049Z,23.57
2019-03-21T01:17:11.406Z,28.47
2019-03-21T01:19:40.722Z,25.20
2019-03-21T01:22:10.451Z,29.67
2019-03-21T01:24:39.800Z,31.73
2019-03-21T01:27:09.034Z,28.17
2019-03-21T01:29:38.355Z,37.35
2019-03-21T01:32:07.750Z,28.38
2019-03-21T01:34:37.321Z,27.73
2019-03-21T01:37:06.386Z,22.35
2019-03-21T01:39:35.655Z,25.95
2019-03-21T01:42:04.952Z,24.63
2019-03-21T01:44:40.954Z,30.30
2019-03-21T01:47:05.684Z,31.37
2019-03-21T01:49:34.865Z,31.15
2019-03-21T01:52:04.098Z,26.60
2019-03-21T01:54:34.159Z,29.90
2019-03-21T01:57:03.872Z,26.33
2019-03-21T01:59:33.088Z,26.45
2019-03-21T02:02:02.950Z,30.57
2019-03-21T02:04:32.602Z,31.30
2019-03-21T02:07:02.143Z,30.12
2019-03-21T02:09:31.510Z,28.67
2019-03-21T02:12:02.875Z,32.70
2019-03-21T02:14:32.249Z,33.60
2019-03-21T02:17:01.513Z,37.58
2019-03-21T02:19:30.867Z,31.35
2019-03-21T02:22:00.138Z,30.60
2019-03-21T02:24:29.478Z,28.95
2019-03-21T02:26:58.736Z,28.98
2019-03-21T02:29:28.386Z,38.85
2019-03-21T02:31:57.583Z,32.67
2019-03-21T02:34:26.873Z,32.08
2019-03-21T02:36:55.835Z,31.73
2019-03-21T02:39:25.267Z,37.38
2019-03-21T02:41:54.459Z,34.08
2019-03-21T02:44:23.868Z,32.90
2019-03-21T02:46:53.152Z,37.80
2019-03-21T02:49:22.522Z,35.75
2019-03-21T02:51:51.638Z,34.98
2019-03-21T02:54:21.258Z,36.70
2019-03-21T02:56:51.247Z,34.67
2019-03-21T02:59:20.608Z,37.35
2019-03-21T03:01:50.188Z,39.38
2019-03-21T03:04:19.259Z,31.73
2019-03-21T03:06:48.546Z,34.33
2019-03-21T03:09:17.788Z,37.38
2019-03-21T03:11:47.055Z,32.45
2019-03-21T03:14:16.399Z,35.70
2019-03-21T03:16:45.686Z,33.67
2019-03-21T03:19:14.917Z,40.23
2019-03-21T03:21:44.142Z,37.98
2019-03-21T03:24:13.523Z,39.08
2019-03-21T03:26:42.601Z,37.53
2019-03-21T03:29:11.957Z,38.80
2019-03-21T03:31:41.381Z,33.00
2019-03-21T03:34:10.644Z,41.18
2019-03-21T03:36:39.800Z,42.38
2019-03-21T03:39:09.443Z,33.05
2019-03-21T03:41:38.737Z,34.90
2019-03-21T03:44:08.523Z,36.48
2019-03-21T03:46:37.851Z,36.60
2019-03-21T03:49:07.344Z,37.90
2019-03-21T03:51:36.517Z,36.28
2019-03-21T03:54:05.851Z,38.17
2019-03-21T03:56:35.375Z,37.73
2019-03-21T03:59:05.212Z,40.10
2019-03-21T04:01:34.712Z,41.77
2019-03-21T04:04:03.965Z,39.48
2019-03-21T04:06:33.033Z,39.20
2019-03-21T04:09:04.215Z,39.65
2019-03-21T04:11:33.831Z,43.25
2019-03-21T04:14:03.060Z,36.95
2019-03-21T04:16:32.304Z,35.58
2019-03-21T04:19:01.580Z,42.75
2019-03-21T04:21:30.988Z,41.77
2019-03-21T04:24:00.326Z,37.33
2019-03-21T04:26:30.430Z,37.03
2019-03-21T04:28:59.566Z,45.33
2019-03-21T04:31:28.733Z,41.50
2019-03-21T04:34:00.349Z,42.70
2019-03-21T04:36:29.342Z,44.48
2019-03-21T04:38:58.381Z,40.65
2019-03-21T04:41:27.850Z,40.88
2019-03-21T04:43:57.133Z,33.13
2019-03-21T04:46:26.239Z,39.83
2019-03-21T04:48:55.375Z,36.35
2019-03-21T04:51:24.739Z,37.85
2019-03-21T04:53:53.866Z,41.23
2019-03-21T04:56:23.329Z,42.30
2019-03-21T04:58:52.910Z,37.70
2019-03-21T05:01:22.054Z,43.83
2019-03-21T05:03:51.499Z,37.95
2019-03-21T05:06:20.754Z,45.08
2019-03-21T05:08:50.102Z,41.98
2019-03-21T05:11:19.531Z,45.38
2019-03-21T05:13:48.961Z,50.12
2019-03-21T05:16:18.360Z,41.75
2019-03-21T05:18:48.227Z,53.52
2019-03-21T05:21:17.724Z,49.20
2019-03-21T05:23:46.752Z,48.30
2019-03-21T05:26:15.770Z,40.80
2019-03-21T05:28:45.423Z,46.70
2019-03-21T05:31:22.536Z,46.80
2019-03-21T05:33:51.686Z,50.43
2019-03-21T05:36:20.888Z,49.48
2019-03-21T05:38:51.037Z,42.10
2019-03-21T05:41:20.156Z,46.00
2019-03-21T05:44:04.106Z,49.85
2019-03-21T05:46:34.924Z,44.77
2019-03-21T05:49:05.637Z,45.50
2019-03-21T05:51:34.807Z,48.35
2019-03-21T05:54:04.211Z,43.85
2019-03-21T05:56:33.499Z,48.38
2019-03-21T05:59:04.068Z,44.48
2019-03-21T06:01:33.992Z,44.60
2019-03-21T06:04:03.621Z,47.33
2019-03-21T06:07:02.538Z,40.05
2019-03-21T06:09:31.749Z,42.00
2019-03-21T06:12:02.439Z,46.15
2019-03-21T06:17:01.109Z,43.10
2019-03-21T06:20:14.435Z,38.67
2019-03-21T06:23:21.751Z,46.63
2019-03-21T06:26:57.290Z,41.05
2019-03-21T06:29:26.680Z,44.98
2019-03-21T06:31:55.930Z,44.27
2019-03-21T06:34:25.634Z,45.75
2019-03-21T06:36:54.942Z,49.85
2019-03-21T06:39:24.229Z,43.90
2019-03-21T06:41:53.808Z,36.73
2019-03-21T06:44:23.017Z,45.65
2019-03-21T06:46:52.434Z,35.98
2019-03-21T06:49:22.384Z,48.10
2019-03-21T06:51:51.502Z,46.80
2019-03-21T06:54:21.644Z,38.15
2019-03-21T06:56:51.069Z,46.53
2019-03-21T06:59:20.608Z,45.65
2019-03-21T07:01:50.107Z,36.80
2019-03-21T07:04:19.426Z,47.20
2019-03-21T07:06:48.491Z,54.23
2019-03-21T07:09:18.067Z,40.33
2019-03-21T07:11:47.621Z,40.03
2019-03-21T07:14:16.954Z,47.98
2019-03-21T07:16:46.061Z,43.85
2019-03-21T07:19:15.148Z,48.17
2019-03-21T07:21:44.619Z,43.50
2019-03-21T07:24:13.720Z,41.70
2019-03-21T07:26:43.131Z,37.78
2019-03-21T07:29:12.880Z,44.13
2019-03-21T07:31:42.314Z,40.52
2019-03-21T07:34:11.403Z,41.85
2019-03-21T07:36:40.946Z,45.80
2019-03-21T07:39:10.538Z,43.30
2019-03-21T07:41:39.887Z,35.10
2019-03-21T07:44:09.237Z,42.48
2019-03-21T07:46:38.453Z,43.87
2019-03-21T07:49:08.266Z,42.75
2019-03-21T07:51:37.998Z,50.13
2019-03-21T07:54:07.139Z,36.33
2019-03-21T07:56:36.584Z,39.67
2019-03-21T07:59:05.843Z,36.35
2019-03-21T08:01:35.219Z,41.33
2019-03-21T08:04:04.577Z,39.48
2019-03-21T08:06:33.733Z,41.98
2019-03-21T08:09:04.193Z,39.95
2019-03-21T08:11:33.330Z,42.88
2019-03-21T08:14:02.591Z,43.98
2019-03-21T08:16:32.180Z,39.45
2019-03-21T08:19:02.149Z,38.63
2019-03-21T08:21:31.487Z,40.73
2019-03-21T08:24:00.641Z,30.80
2019-03-21T08:26:30.075Z,36.08
2019-03-21T08:28:59.340Z,44.13
2019-03-21T08:31:28.383Z,47.53
2019-03-21T08:33:57.641Z,36.90
2019-03-21T08:36:27.009Z,43.55
2019-03-21T08:38:56.133Z,43.00
2019-03-21T08:41:25.250Z,34.38
2019-03-21T08:43:54.529Z,33.85
2019-03-21T08:46:23.744Z,35.83
2019-03-21T08:48:52.865Z,39.03
2019-03-21T08:51:22.038Z,36.85
2019-03-21T08:53:51.422Z,33.25
2019-03-21T08:56:20.765Z,35.05
2019-03-21T08:58:49.966Z,29.18
2019-03-21T09:01:19.203Z,32.75
2019-03-21T09:03:48.936Z,42.98
2019-03-21T09:06:18.571Z,31.85
2019-03-21T09:08:47.847Z,43.08
2019-03-21T09:11:17.120Z,30.20
2019-03-21T09:13:46.251Z,29.37
2019-03-21T09:16:15.331Z,26.93
2019-03-21T09:18:44.751Z,30.30
2019-03-21T09:21:19.749Z,24.52
2019-03-21T09:23:45.146Z,25.43
2019-03-21T09:26:14.452Z,28.60
2019-03-21T09:28:43.805Z,23.12
2019-03-21T09:31:13.258Z,25.05
2019-03-21T09:33:42.703Z,20.52
2019-03-21T09:36:11.945Z,23.57
2019-03-21T09:38:41.210Z,22.35
2019-03-21T09:41:10.361Z,22.67
2019-03-21T09:43:39.621Z,19.60
2019-03-21T09:46:08.793Z,19.75
2019-03-21T09:48:38.512Z,19.45
2019-03-21T09:51:07.819Z,33.58
2019-03-21T09:53:37.342Z,26.48
2019-03-21T09:56:06.679Z,29.40
2019-03-21T09:58:36.019Z,26.93
2019-03-21T10:01:05.379Z,33.65
2019-03-21T10:03:34.596Z,29.63
2019-03-21T10:06:03.932Z,36.65
2019-03-21T10:08:33.074Z,30.23
2019-03-21T10:11:02.691Z,32.13
2019-03-21T10:13:32.272Z,33.30
2019-03-21T10:16:02.269Z,31.48
2019-03-21T10:18:31.807Z,33.48
2019-03-21T10:21:01.270Z,32.83
2019-03-21T10:23:30.542Z,35.05
2019-03-21T10:25:59.780Z,31.97
2019-03-21T10:28:29.543Z,31.42
2019-03-21T10:30:58.816Z,32.80
2019-03-21T10:33:28.264Z,34.15
2019-03-21T10:35:57.704Z,29.65
2019-03-21T10:38:26.923Z,24.90
2019-03-21T10:40:56.295Z,23.65
2019-03-21T10:43:25.949Z,27.17
2019-03-21T10:45:55.091Z,24.63
2019-03-21T10:48:24.553Z,20.90
2019-03-21T10:50:54.126Z,23.25
2019-03-21T10:53:23.453Z,15.35
2019-03-21T10:55:52.622Z,20.15
2019-03-21T10:58:22.426Z,21.10
2019-03-21T11:00:51.622Z,20.30
2019-03-21T11:03:21.282Z,18.60
2019-03-21T11:05:50.589Z,23.95
2019-03-21T11:08:20.087Z,18.10
2019-03-21T11:10:49.738Z,15.23
2019-03-21T11:13:19.107Z,19.70
2019-03-21T11:15:48.360Z,12.82
2019-03-21T11:18:17.603Z,18.52
2019-03-21T11:20:46.738Z,14.25
2019-03-21T11:23:16.248Z,14.33
2019-03-21T11:25:45.470Z,16.45
2019-03-21T11:28:17.611Z,17.25
2019-03-21T11:30:46.286Z,17.42
2019-03-21T11:33:15.581Z,17.27
2019-03-21T11:35:44.840Z,14.03
2019-03-21T11:38:14.314Z,15.98
2019-03-21T11:40:43.846Z,12.68
2019-03-21T11:43:17.912Z,15.08
2019-03-21T11:45:48.002Z,14.78
2019-03-21T11:48:18.197Z,16.60
2019-03-21T11:50:47.779Z,17.32
2019-03-21T11:53:17.144Z,17.57
2019-03-21T11:55:46.504Z,16.50
2019-03-21T11:58:17.695Z,15.43
2019-03-21T12:00:46.846Z,15.75
2019-03-21T12:03:16.323Z,18.87
2019-03-21T12:05:45.638Z,21.42
2019-03-21T12:08:15.195Z,15.30
2019-03-21T12:10:44.623Z,17.67
2019-03-21T12:13:14.346Z,13.85
2019-03-21T12:15:43.603Z,13.48
2019-03-21T12:18:13.036Z,14.40
2019-03-21T12:20:42.408Z,15.13
2019-03-21T12:23:11.846Z,15.65
2019-03-21T12:25:41.088Z,18.80
2019-03-21T12:28:10.314Z,20.27
2019-03-21T12:30:41.740Z,18.20
2019-03-21T12:33:11.196Z,16.52
2019-03-21T12:35:40.195Z,15.70
2019-03-21T12:38:09.659Z,15.23
2019-03-21T12:40:38.680Z,12.55
2019-03-21T12:43:08.350Z,14.47
2019-03-21T12:45:37.701Z,13.83
2019-03-21T12:48:06.861Z,13.05
2019-03-21T12:50:36.193Z,16.07
2019-03-21T12:53:05.796Z,14.10
2019-03-21T12:55:35.441Z,13.78
2019-03-21T12:58:04.656Z,14.33
2019-03-21T13:00:43.979Z,15.05
2019-03-21T13:03:13.307Z,16.25
2019-03-21T13:05:43.716Z,17.52
2019-03-21T13:08:13.028Z,10.40
2019-03-21T13:10:42.301Z,13.75
2019-03-21T13:13:11.643Z,16.07
2019-03-21T13:15:41.300Z,12.47
2019-03-21T13:18:10.714Z,15.38
2019-03-21T13:20:39.882Z,10.53
2019-03-21T13:23:09.143Z,12.18
2019-03-21T13:25:38.405Z,10.98
2019-03-21T13:28:07.738Z,13.13
2019-03-21T13:30:37.203Z,16.20
2019-03-21T13:33:06.587Z,7.90
2019-03-21T13:35:36.000Z,13.08
2019-03-21T13:38:05.391Z,13.38
2019-03-21T13:40:34.906Z,12.75
2019-03-21T13:43:05.458Z,14.28
2019-03-21T13:45:34.695Z,11.18
2019-03-21T13:48:04.601Z,12.88
2019-03-21T13:50:33.995Z,11.00
2019-03-21T13:53:05.123Z,14.98
2019-03-21T13:55:35.113Z,10.25
2019-03-21T13:58:04.188Z,16.23
2019-03-21T14:00:33.531Z,12.25
2019-03-21T14:03:03.197Z,13.55
2019-03-21T14:05:32.533Z,14.85
2019-03-21T14:08:02.115Z,13.62
2019-03-21T14:10:32.390Z,12.82
2019-03-21T14:13:01.633Z,8.80
2019-03-21T14:15:30.931Z,11.53
2019-03-21T14:18:00.564Z,14.85
2019-03-21T14:20:29.918Z,13.15
2019-03-21T14:22:59.311Z,18.62
2019-03-21T14:25:29.091Z,11.93
2019-03-21T14:27:58.666Z,13.65
2019-03-21T14:30:27.986Z,12.73
2019-03-21T14:32:57.067Z,14.23
2019-03-21T14:35:26.670Z,13.08
2019-03-21T14:37:55.878Z,11.53
2019-03-21T14:40:25.490Z,12.70
2019-03-21T14:42:55.140Z,15.03
2019-03-21T14:45:24.471Z,16.12
2019-03-21T14:47:53.657Z,13.62
2019-03-21T14:50:23.246Z,10.38
2019-03-21T14:52:52.583Z,15.28
2019-03-21T14:55:21.739Z,14.10
2019-03-21T14:57:51.520Z,18.50
2019-03-21T15:00:21.032Z,11.43
2019-03-21T15:02:50.718Z,9.40
2019-03-21T15:05:20.291Z,10.50
2019-03-21T15:07:49.525Z,13.68
2019-03-21T15:10:19.008Z,17.67
2019-03-21T15:12:48.625Z,17.52
2019-03-21T15:15:17.926Z,16.75
2019-03-21T15:17:47.233Z,12.15
2019-03-21T15:20:16.421Z,15.75
2019-03-21T15:22:45.763Z,10.82
2019-03-21T15:25:15.850Z,16.40
2019-03-21T15:27:45.362Z,15.10
2019-03-21T15:30:18.008Z,14.87
2019-03-21T15:32:47.599Z,14.53
2019-03-21T15:35:18.015Z,21.70
2019-03-21T15:37:47.790Z,16.55
2019-03-21T15:40:16.908Z,23.70
2019-03-21T15:42:46.316Z,22.82
2019-03-21T15:45:22.751Z,20.57
2019-03-21T15:47:47.635Z,21.23
2019-03-21T15:50:41.428Z,26.63
2019-03-21T15:53:10.749Z,24.05
2019-03-21T15:55:40.129Z,22.55
2019-03-21T15:58:09.812Z,24.27
2019-03-21T16:00:40.441Z,26.70
2019-03-21T16:03:10.979Z,25.70
2019-03-21T16:05:40.710Z,35.52
2019-03-21T16:08:10.533Z,31.35
2019-03-21T16:10:39.984Z,27.20
2019-03-21T16:13:09.365Z,24.95
2019-03-21T16:15:38.456Z,23.10
2019-03-21T16:18:07.637Z,38.65
2019-03-21T16:20:37.235Z,38.58
2019-03-21T16:23:06.523Z,31.55
2019-03-21T16:25:35.770Z,33.58
2019-03-21T16:28:05.732Z,29.30
2019-03-21T16:30:35.177Z,29.13
2019-03-21T16:33:04.594Z,25.25
2019-03-21T16:35:33.720Z,36.50
2019-03-21T16:38:03.214Z,29.45
2019-03-21T16:40:32.843Z,44.42
2019-03-21T16:43:05.312Z,27.20
2019-03-21T16:45:33.556Z,28.45
2019-03-21T16:48:03.201Z,33.75
2019-03-21T16:50:32.466Z,33.88
2019-03-21T16:53:01.664Z,46.30
2019-03-21T16:55:31.059Z,31.33
2019-03-21T16:58:00.187Z,45.08
2019-03-21T17:00:29.255Z,36.23
2019-03-21T17:02:58.387Z,39.65
2019-03-21T17:05:27.988Z,41.55
2019-03-21T17:07:57.313Z,40.48
2019-03-21T17:10:26.486Z,48.90
2019-03-21T17:12:55.943Z,47.00
2019-03-21T17:15:25.470Z,42.67
2019-03-21T17:17:54.817Z,46.37
2019-03-21T17:20:24.096Z,44.67
2019-03-21T17:22:53.414Z,35.55
2019-03-21T17:25:22.572Z,36.75
2019-03-21T17:27:54.702Z,39.58
2019-03-21T17:30:23.396Z,35.20
2019-03-21T17:32:52.697Z,35.45
2019-03-21T17:35:21.943Z,37.50
2019-03-21T17:37:51.237Z,32.08
2019-03-21T17:40:20.322Z,35.58
2019-03-21T17:42:49.641Z,32.30
2019-03-21T17:45:19.329Z,42.58
2019-03-21T17:47:48.903Z,38.38
2019-03-21T17:50:18.780Z,43.50
2019-03-21T17:52:48.098Z,36.60
2019-03-21T17:55:17.271Z,42.17
2019-03-21T17:57:46.647Z,45.75
2019-03-21T18:00:18.371Z,41.42
2019-03-21T18:02:47.689Z,45.05
2019-03-21T18:05:18.121Z,37.73
2019-03-21T18:07:47.299Z,39.18
2019-03-21T18:10:31.595Z,44.03
2019-03-21T18:13:01.514Z,41.30
2019-03-21T18:15:31.027Z,40.70
2019-03-21T18:18:02.472Z,38.88
2019-03-21T18:20:31.838Z,39.85
2019-03-21T18:23:02.174Z,42.23
2019-03-21T18:25:31.420Z,41.85
2019-03-21T18:28:00.625Z,39.20
2019-03-21T18:30:30.047Z,42.58
2019-03-21T18:32:59.310Z,38.10
2019-03-21T18:35:29.273Z,46.13
2019-03-21T18:37:58.531Z,37.93
2019-03-21T18:40:30.522Z,42.00
2019-03-21T18:42:59.790Z,45.35
2019-03-21T18:45:29.193Z,43.83
2019-03-21T18:47:58.152Z,42.93
2019-03-21T18:50:27.569Z,47.85
2019-03-21T18:52:56.801Z,50.43
2019-03-21T18:55:26.039Z,45.98
2019-03-21T18:57:55.414Z,44.58
2019-03-21T19:00:24.957Z,51.40
2019-03-21T19:02:54.231Z,44.83
2019-03-21T19:05:23.356Z,47.27
2019-03-21T19:07:52.452Z,45.83
2019-03-21T19:10:21.987Z,42.33
2019-03-21T19:12:51.127Z,46.23
2019-03-21T19:15:20.569Z,40.10
2019-03-21T19:17:50.133Z,40.00
2019-03-21T19:20:20.520Z,44.60
2019-03-21T19:22:49.961Z,47.27
2019-03-21T19:25:20.076Z,44.27
2019-03-21T19:27:49.168Z,43.68
2019-03-21T19:30:19.158Z,46.48
2019-03-21T19:32:48.634Z,51.88
2019-03-21T19:35:18.098Z,47.17
2019-03-21T19:37:47.335Z,48.17
2019-03-21T19:40:17.250Z,48.65
2019-03-21T19:42:46.529Z,55.53
2019-03-21T19:45:16.400Z,47.88
2019-03-21T19:47:45.583Z,50.07
2019-03-21T19:50:16.483Z,54.38
2019-03-21T19:52:45.733Z,55.23
2019-03-21T19:55:15.136Z,52.53
2019-03-21T19:57:44.482Z,66.53
2019-03-21T20:00:16.852Z,48.92
2019-03-21T20:02:46.264Z,54.18
2019-03-21T20:05:15.717Z,54.40
2019-03-21T20:07:45.272Z,61.75
2019-03-21T20:10:15.558Z,52.08
2019-03-21T20:12:45.110Z,46.40
2019-03-21T20:15:15.106Z,52.05
2019-03-21T20:17:44.338Z,50.25
2019-03-21T20:20:14.568Z,53.23
2019-03-21T20:22:44.063Z,51.25
2019-03-21T20:25:14.552Z,49.53
2019-03-21T20:27:43.607Z,53.85
2019-03-21T20:30:15.432Z,53.63
2019-03-21T20:32:44.729Z,59.42
2019-03-21T20:35:14.372Z,61.15
2019-03-21T20:37:43.828Z,52.13
2019-03-21T20:40:13.400Z,52.00
2019-03-21T20:42:42.661Z,47.40
2019-03-21T20:45:13.043Z,52.55
2019-03-21T20:47:42.148Z,56.92
2019-03-21T20:50:12.477Z,50.98
2019-03-21T20:52:41.716Z,50.30
2019-03-21T20:55:11.645Z,53.48
2019-03-21T20:57:40.939Z,51.87
2019-03-21T21:00:15.329Z,49.73
2019-03-21T21:02:44.906Z,51.48
2019-03-21T21:05:14.524Z,50.38
2019-03-21T21:07:44.021Z,52.53
2019-03-21T21:10:13.847Z,55.15
2019-03-21T21:12:43.371Z,46.47
2019-03-21T21:15:13.272Z,55.95
2019-03-21T21:17:43.261Z,49.33
2019-03-21T21:20:13.279Z,55.08
2019-03-21T21:22:42.836Z,57.62
2019-03-21T21:25:12.849Z,53.33
2019-03-21T21:27:49.405Z,50.83
2019-03-21T21:30:16.561Z,59.18
2019-03-21T21:32:45.848Z,53.00
2019-03-21T21:35:15.465Z,58.10
2019-03-21T21:37:45.389Z,62.50
2019-03-21T21:40:16.117Z,62.27
2019-03-21T21:42:45.586Z,55.83
2019-03-21T21:45:15.260Z,54.42
2019-03-21T21:47:44.483Z,52.85
2019-03-21T21:50:14.067Z,54.60
2019-03-21T21:52:43.272Z,57.35
2019-03-21T21:55:13.190Z,53.50
2019-03-21T21:57:42.509Z,52.53
2019-03-21T22:00:14.030Z,60.40
2019-03-21T22:02:43.686Z,60.05
2019-03-21T22:05:13.387Z,53.60
2019-03-21T22:07:42.516Z,58.30
2019-03-21T22:10:12.318Z,57.40
2019-03-21T22:12:41.835Z,50.50
2019-03-21T22:15:11.450Z,64.12
2019-03-21T22:17:40.610Z,56.77
2019-03-21T22:20:10.885Z,59.38
2019-03-21T22:22:40.242Z,56.10
2019-03-21T22:25:09.771Z,58.45
2019-03-21T22:27:39.739Z,54.50
2019-03-21T22:30:11.471Z,58.38
2019-03-21T22:32:40.684Z,48.28
2019-03-21T22:35:10.285Z,60.43
2019-03-21T22:37:40.082Z,54.48
2019-03-21T22:40:09.767Z,52.70
2019-03-21T22:42:39.730Z,52.15
2019-03-21T22:45:10.418Z,54.07
2019-03-21T22:47:40.152Z,53.70
2019-03-21T22:50:11.838Z,58.20
2019-03-21T22:52:41.252Z,54.10
2019-03-21T22:55:10.774Z,51.68
2019-03-21T22:57:40.019Z,57.90
2019-03-21T23:00:13.772Z,55.05
2019-03-21T23:02:43.482Z,54.15
2019-03-21T23:05:13.266Z,55.08
2019-03-21T23:07:42.653Z,57.60
2019-03-21T23:10:12.637Z,52.27
2019-03-21T23:12:42.220Z,62.80
2019-03-21T23:15:12.050Z,59.10
2019-03-21T23:17:41.798Z,57.80
2019-03-21T23:20:11.437Z,55.78
2019-03-21T23:22:40.654Z,57.60
2019-03-21T23:25:12.596Z,60.65
2019-03-21T23:27:41.681Z,60.10
2019-03-21T23:30:12.015Z,63.00
2019-03-21T23:32:41.388Z,56.80
2019-03-21T23:35:10.847Z,57.50
2019-03-21T23:37:40.089Z,57.45
2019-03-21T23:40:09.962Z,65.05
2019-03-21T23:42:39.083Z,62.37
2019-03-21T23:45:09.296Z,55.80
2019-03-21T23:47:38.726Z,57.65
2019-03-21T23:50:08.676Z,57.40
2019-03-21T23:52:38.104Z,62.10
2019-03-21T23:55:08.480Z,58.28
2019-03-21T23:57:37.935Z,64.80
